Grenola, Kansas
Current Conditions -  °F | °C
As of 6:54 AM on Thursday 23 Oct 2014 (Local Time) from KWLD Reporting Station
Haze Haze  
Wind Chill: 61°   Ceiling: Unl
Heat Index: 61°   Visibility: 6mi
Dew Point: 60°   Wind: 7mph
Humidity: 97%   Direction: 180°S
Pressure: 30.1"   Gusts: NA
Location:  37.35°N, 96.45°W
Report Text: KWLD 231154Z AUTO 18006KT 6SM BR SCT055 16/16 A3010 RMK AO2 SLP186 60002 70005 T01610156 10172 20161 55000
Loading
Personal Weather Stations






























Interactive Weather Map
Tropical Storm Tracking
New forecast layout! Learn more

10-Day Weather Forecast

Advertisements
Track Severe Weather on mobile